sensor_id;sensor_type;location;lat;lon;timestamp;temperature;humidity
61386;DHT22;47256;18.904;-99.054;2022-12-24T00:02:12;24.90;65.10
61386;DHT22;47256;18.904;-99.054;2022-12-24T00:04:39;24.90;65.10
61386;DHT22;47256;18.904;-99.054;2022-12-24T00:07:06;24.90;65.10
61386;DHT22;47256;18.904;-99.054;2022-12-24T00:09:34;24.80;65.50
61386;DHT22;47256;18.904;-99.054;2022-12-24T00:12:11;24.80;64.90
61386;DHT22;47256;18.904;-99.054;2022-12-24T00:14:43;24.80;65.10
61386;DHT22;47256;18.904;-99.054;2022-12-24T00:17:19;24.80;65.60
61386;DHT22;47256;18.904;-99.054;2022-12-24T00:19:48;24.70;64.20
61386;DHT22;47256;18.904;-99.054;2022-12-24T00:22:20;24.80;64.20
61386;DHT22;47256;18.904;-99.054;2022-12-24T00:24:48;24.80;65.00
61386;DHT22;47256;18.904;-99.054;2022-12-24T00:27:16;24.80;65.10
61386;DHT22;47256;18.904;-99.054;2022-12-24T00:29:44;24.70;65.30
61386;DHT22;47256;18.904;-99.054;2022-12-24T00:32:15;24.70;65.70
61386;DHT22;47256;18.904;-99.054;2022-12-24T00:34:44;24.70;65.90
61386;DHT22;47256;18.904;-99.054;2022-12-24T00:37:11;24.70;66.90
61386;DHT22;47256;18.904;-99.054;2022-12-24T00:39:38;24.60;66.10
61386;DHT22;47256;18.904;-99.054;2022-12-24T00:42:05;24.60;66.50
61386;DHT22;47256;18.904;-99.054;2022-12-24T00:44:37;24.50;66.20
61386;DHT22;47256;18.904;-99.054;2022-12-24T00:47:05;24.50;66.30
61386;DHT22;47256;18.904;-99.054;2022-12-24T00:49:35;24.50;66.40
61386;DHT22;47256;18.904;-99.054;2022-12-24T00:52:02;24.50;66.50
61386;DHT22;47256;18.904;-99.054;2022-12-24T00:54:29;24.40;66.10
61386;DHT22;47256;18.904;-99.054;2022-12-24T00:56:56;24.40;66.50
61386;DHT22;47256;18.904;-99.054;2022-12-24T00:59:24;24.40;66.00
61386;DHT22;47256;18.904;-99.054;2022-12-24T01:01:52;24.40;65.90
61386;DHT22;47256;18.904;-99.054;2022-12-24T01:04:19;24.30;66.20
61386;DHT22;47256;18.904;-99.054;2022-12-24T01:07:05;24.30;65.50
61386;DHT22;47256;18.904;-99.054;2022-12-24T01:09:33;24.30;66.20
61386;DHT22;47256;18.904;-99.054;2022-12-24T01:12:01;24.20;66.30
61386;DHT22;47256;18.904;-99.054;2022-12-24T01:14:29;24.20;66.20
61386;DHT22;47256;18.904;-99.054;2022-12-24T01:16:57;24.20;66.00
61386;DHT22;47256;18.904;-99.054;2022-12-24T01:19:30;24.20;66.50
61386;DHT22;47256;18.904;-99.054;2022-12-24T01:21:59;24.20;66.10
61386;DHT22;47256;18.904;-99.054;2022-12-24T01:24:29;24.10;66.50
61386;DHT22;47256;18.904;-99.054;2022-12-24T01:26:57;24.10;66.20
61386;DHT22;47256;18.904;-99.054;2022-12-24T01:29:26;24.10;66.10
61386;DHT22;47256;18.904;-99.054;2022-12-24T01:31:53;24.10;66.60
61386;DHT22;47256;18.904;-99.054;2022-12-24T01:34:22;24.10;66.30
61386;DHT22;47256;18.904;-99.054;2022-12-24T01:36:50;24.00;66.50
61386;DHT22;47256;18.904;-99.054;2022-12-24T01:39:20;24.00;66.80
61386;DHT22;47256;18.904;-99.054;2022-12-24T01:41:47;23.90;66.40
61386;DHT22;47256;18.904;-99.054;2022-12-24T01:44:42;23.80;66.40
61386;DHT22;47256;18.904;-99.054;2022-12-24T01:47:38;23.80;66.80
61386;DHT22;47256;18.904;-99.054;2022-12-24T01:50:15;23.80;67.10
61386;DHT22;47256;18.904;-99.054;2022-12-24T01:52:43;23.70;66.90
61386;DHT22;47256;18.904;-99.054;2022-12-24T01:55:19;23.70;67.40
61386;DHT22;47256;18.904;-99.054;2022-12-24T01:57:54;23.80;67.70
61386;DHT22;47256;18.904;-99.054;2022-12-24T02:00:23;23.70;67.60
61386;DHT22;47256;18.904;-99.054;2022-12-24T02:02:51;23.70;68.40
61386;DHT22;47256;18.904;-99.054;2022-12-24T02:05:33;23.50;68.10
61386;DHT22;47256;18.904;-99.054;2022-12-24T02:08:04;23.50;68.90
61386;DHT22;47256;18.904;-99.054;2022-12-24T02:10:40;23.50;68.80
61386;DHT22;47256;18.904;-99.054;2022-12-24T02:13:09;23.40;68.90
61386;DHT22;47256;18.904;-99.054;2022-12-24T02:16:02;23.40;69.20
61386;DHT22;47256;18.904;-99.054;2022-12-24T02:21:52;23.30;70.30
61386;DHT22;47256;18.904;-99.054;2022-12-24T02:24:42;23.30;71.20
61386;DHT22;47256;18.904;-99.054;2022-12-24T02:28:09;23.30;70.80
61386;DHT22;47256;18.904;-99.054;2022-12-24T02:30:22;23.20;70.30
61386;DHT22;47256;18.904;-99.054;2022-12-24T02:33:56;23.20;73.60
61386;DHT22;47256;18.904;-99.054;2022-12-24T02:36:05;23.10;72.50
61386;DHT22;47256;18.904;-99.054;2022-12-24T02:41:33;23.00;73.50
61386;DHT22;47256;18.904;-99.054;2022-12-24T02:44:27;23.00;72.10
61386;DHT22;47256;18.904;-99.054;2022-12-24T02:46:57;23.00;73.20
61386;DHT22;47256;18.904;-99.054;2022-12-24T02:49:26;22.90;73.40
61386;DHT22;47256;18.904;-99.054;2022-12-24T02:51:53;22.80;73.20
61386;DHT22;47256;18.904;-99.054;2022-12-24T02:54:21;22.80;73.20
61386;DHT22;47256;18.904;-99.054;2022-12-24T02:57:07;22.80;74.20
61386;DHT22;47256;18.904;-99.054;2022-12-24T03:05:34;22.50;74.50
61386;DHT22;47256;18.904;-99.054;2022-12-24T03:11:13;22.40;75.10
61386;DHT22;47256;18.904;-99.054;2022-12-24T03:13:43;22.30;74.80
61386;DHT22;47256;18.904;-99.054;2022-12-24T03:16:14;22.20;75.00
61386;DHT22;47256;18.904;-99.054;2022-12-24T03:18:47;22.20;75.90
61386;DHT22;47256;18.904;-99.054;2022-12-24T03:21:28;22.10;76.10
61386;DHT22;47256;18.904;-99.054;2022-12-24T03:24:22;22.10;76.80
61386;DHT22;47256;18.904;-99.054;2022-12-24T03:26:51;21.90;75.60
61386;DHT22;47256;18.904;-99.054;2022-12-24T03:29:21;22.00;75.80
61386;DHT22;47256;18.904;-99.054;2022-12-24T03:31:59;22.00;75.70
61386;DHT22;47256;18.904;-99.054;2022-12-24T03:34:29;22.00;76.30
61386;DHT22;47256;18.904;-99.054;2022-12-24T03:37:01;22.00;76.50
61386;DHT22;47256;18.904;-99.054;2022-12-24T03:39:31;22.00;76.80
61386;DHT22;47256;18.904;-99.054;2022-12-24T03:42:01;21.90;76.50
61386;DHT22;47256;18.904;-99.054;2022-12-24T03:44:32;21.90;75.70
61386;DHT22;47256;18.904;-99.054;2022-12-24T03:47:32;21.90;75.60
61386;DHT22;47256;18.904;-99.054;2022-12-24T03:50:02;21.80;75.90
61386;DHT22;47256;18.904;-99.054;2022-12-24T03:53:00;21.80;76.80
61386;DHT22;47256;18.904;-99.054;2022-12-24T03:55:29;21.70;76.90
61386;DHT22;47256;18.904;-99.054;2022-12-24T03:58:02;21.60;77.50
61386;DHT22;47256;18.904;-99.054;2022-12-24T04:00:32;21.60;78.10
61386;DHT22;47256;18.904;-99.054;2022-12-24T04:03:06;21.50;79.40
61386;DHT22;47256;18.904;-99.054;2022-12-24T04:05:39;21.30;78.50
61386;DHT22;47256;18.904;-99.054;2022-12-24T04:08:09;21.30;78.60
61386;DHT22;47256;18.904;-99.054;2022-12-24T04:10:43;21.30;78.30
61386;DHT22;47256;18.904;-99.054;2022-12-24T04:13:13;21.30;78.20
61386;DHT22;47256;18.904;-99.054;2022-12-24T04:15:57;21.30;78.50
61386;DHT22;47256;18.904;-99.054;2022-12-24T04:18:27;21.30;77.90
61386;DHT22;47256;18.904;-99.054;2022-12-24T04:20:57;21.30;77.70
61386;DHT22;47256;18.904;-99.054;2022-12-24T04:23:56;21.30;77.80
61386;DHT22;47256;18.904;-99.054;2022-12-24T04:26:28;21.30;78.40
61386;DHT22;47256;18.904;-99.054;2022-12-24T04:29:05;21.30;78.60
61386;DHT22;47256;18.904;-99.054;2022-12-24T04:31:36;21.30;78.40
61386;DHT22;47256;18.904;-99.054;2022-12-24T04:34:05;21.30;78.90
61386;DHT22;47256;18.904;-99.054;2022-12-24T04:36:37;21.30;78.30
61386;DHT22;47256;18.904;-99.054;2022-12-24T04:39:07;21.20;78.40
61386;DHT22;47256;18.904;-99.054;2022-12-24T04:41:41;21.20;78.50
61386;DHT22;47256;18.904;-99.054;2022-12-24T04:44:11;21.20;78.60
61386;DHT22;47256;18.904;-99.054;2022-12-24T04:46:44;21.20;78.50
61386;DHT22;47256;18.904;-99.054;2022-12-24T04:49:20;21.10;78.70
61386;DHT22;47256;18.904;-99.054;2022-12-24T04:51:51;21.10;78.90
61386;DHT22;47256;18.904;-99.054;2022-12-24T04:54:20;21.00;79.00
61386;DHT22;47256;18.904;-99.054;2022-12-24T04:56:50;21.00;79.50
61386;DHT22;47256;18.904;-99.054;2022-12-24T04:59:25;21.00;80.00
61386;DHT22;47256;18.904;-99.054;2022-12-24T05:01:55;21.00;79.70
61386;DHT22;47256;18.904;-99.054;2022-12-24T05:04:24;21.00;79.30
61386;DHT22;47256;18.904;-99.054;2022-12-24T05:06:55;20.90;80.00
61386;DHT22;47256;18.904;-99.054;2022-12-24T05:09:23;20.90;79.60
61386;DHT22;47256;18.904;-99.054;2022-12-24T05:11:58;20.90;79.90
61386;DHT22;47256;18.904;-99.054;2022-12-24T05:14:28;20.90;80.30
61386;DHT22;47256;18.904;-99.054;2022-12-24T05:16:56;20.90;80.10
61386;DHT22;47256;18.904;-99.054;2022-12-24T05:19:24;20.90;81.50
61386;DHT22;47256;18.904;-99.054;2022-12-24T05:21:54;20.90;80.10
61386;DHT22;47256;18.904;-99.054;2022-12-24T05:24:40;20.90;80.50
61386;DHT22;47256;18.904;-99.054;2022-12-24T05:27:26;20.80;81.20
61386;DHT22;47256;18.904;-99.054;2022-12-24T05:29:54;20.60;81.00
61386;DHT22;47256;18.904;-99.054;2022-12-24T05:32:27;20.60;81.90
61386;DHT22;47256;18.904;-99.054;2022-12-24T05:34:54;20.50;80.90
61386;DHT22;47256;18.904;-99.054;2022-12-24T05:37:26;20.50;81.30
61386;DHT22;47256;18.904;-99.054;2022-12-24T05:39:54;20.50;82.20
61386;DHT22;47256;18.904;-99.054;2022-12-24T05:42:23;20.50;82.30
61386;DHT22;47256;18.904;-99.054;2022-12-24T05:44:51;20.50;82.20
61386;DHT22;47256;18.904;-99.054;2022-12-24T05:47:24;20.50;82.00
61386;DHT22;47256;18.904;-99.054;2022-12-24T05:49:52;20.40;82.10
61386;DHT22;47256;18.904;-99.054;2022-12-24T05:52:19;20.40;82.80
61386;DHT22;47256;18.904;-99.054;2022-12-24T05:54:46;20.50;81.90
61386;DHT22;47256;18.904;-99.054;2022-12-24T05:57:13;20.50;81.10
61386;DHT22;47256;18.904;-99.054;2022-12-24T05:59:43;20.40;81.60
61386;DHT22;47256;18.904;-99.054;2022-12-24T06:02:10;20.40;81.60
61386;DHT22;47256;18.904;-99.054;2022-12-24T06:04:45;20.40;81.70
61386;DHT22;47256;18.904;-99.054;2022-12-24T06:07:13;20.40;81.50
61386;DHT22;47256;18.904;-99.054;2022-12-24T06:09:40;20.40;82.20
61386;DHT22;47256;18.904;-99.054;2022-12-24T06:12:08;20.30;82.40
61386;DHT22;47256;18.904;-99.054;2022-12-24T06:14:36;20.20;82.50
61386;DHT22;47256;18.904;-99.054;2022-12-24T06:17:03;20.20;83.20
61386;DHT22;47256;18.904;-99.054;2022-12-24T06:19:35;20.10;83.00
61386;DHT22;47256;18.904;-99.054;2022-12-24T06:22:05;20.10;84.00
61386;DHT22;47256;18.904;-99.054;2022-12-24T06:24:34;20.10;83.50
61386;DHT22;47256;18.904;-99.054;2022-12-24T06:27:03;20.00;84.10
61386;DHT22;47256;18.904;-99.054;2022-12-24T06:29:30;19.90;85.10
61386;DHT22;47256;18.904;-99.054;2022-12-24T06:31:59;19.90;83.90
61386;DHT22;47256;18.904;-99.054;2022-12-24T06:34:28;19.90;84.10
61386;DHT22;47256;18.904;-99.054;2022-12-24T06:36:55;19.90;84.40
61386;DHT22;47256;18.904;-99.054;2022-12-24T06:39:23;19.70;84.50
61386;DHT22;47256;18.904;-99.054;2022-12-24T06:41:51;19.50;85.50
61386;DHT22;47256;18.904;-99.054;2022-12-24T06:44:21;19.30;86.30
61386;DHT22;47256;18.904;-99.054;2022-12-24T06:46:52;19.30;86.00
61386;DHT22;47256;18.904;-99.054;2022-12-24T06:49:22;19.30;85.60
61386;DHT22;47256;18.904;-99.054;2022-12-24T06:51:49;19.30;85.60
61386;DHT22;47256;18.904;-99.054;2022-12-24T06:54:17;19.40;86.20
61386;DHT22;47256;18.904;-99.054;2022-12-24T06:56:44;19.40;85.80
61386;DHT22;47256;18.904;-99.054;2022-12-24T06:59:15;19.40;86.70
61386;DHT22;47256;18.904;-99.054;2022-12-24T07:01:42;19.30;86.10
61386;DHT22;47256;18.904;-99.054;2022-12-24T07:04:10;19.30;86.90
61386;DHT22;47256;18.904;-99.054;2022-12-24T07:06:40;19.30;87.60
61386;DHT22;47256;18.904;-99.054;2022-12-24T07:09:11;19.30;86.70
61386;DHT22;47256;18.904;-99.054;2022-12-24T07:11:40;19.40;86.50
61386;DHT22;47256;18.904;-99.054;2022-12-24T07:14:08;19.30;86.70
61386;DHT22;47256;18.904;-99.054;2022-12-24T07:16:37;19.20;87.10
61386;DHT22;47256;18.904;-99.054;2022-12-24T07:19:04;19.20;87.30
61386;DHT22;47256;18.904;-99.054;2022-12-24T07:21:33;19.10;87.40
61386;DHT22;47256;18.904;-99.054;2022-12-24T07:24:00;19.10;87.60
61386;DHT22;47256;18.904;-99.054;2022-12-24T07:26:30;19.20;87.40
61386;DHT22;47256;18.904;-99.054;2022-12-24T07:28:57;19.10;87.50
61386;DHT22;47256;18.904;-99.054;2022-12-24T07:31:24;19.10;87.30
61386;DHT22;47256;18.904;-99.054;2022-12-24T07:33:52;19.10;87.80
61386;DHT22;47256;18.904;-99.054;2022-12-24T07:36:21;19.20;87.60
61386;DHT22;47256;18.904;-99.054;2022-12-24T07:38:48;19.20;87.70
61386;DHT22;47256;18.904;-99.054;2022-12-24T07:41:18;19.20;87.60
61386;DHT22;47256;18.904;-99.054;2022-12-24T07:43:45;19.20;87.40
61386;DHT22;47256;18.904;-99.054;2022-12-24T07:46:16;19.20;87.70
61386;DHT22;47256;18.904;-99.054;2022-12-24T07:48:43;19.10;87.90
61386;DHT22;47256;18.904;-99.054;2022-12-24T07:51:10;19.10;88.30
61386;DHT22;47256;18.904;-99.054;2022-12-24T07:53:39;19.10;87.60
61386;DHT22;47256;18.904;-99.054;2022-12-24T07:56:15;19.20;87.60
61386;DHT22;47256;18.904;-99.054;2022-12-24T07:58:43;19.10;88.20
61386;DHT22;47256;18.904;-99.054;2022-12-24T08:01:10;19.10;88.10
61386;DHT22;47256;18.904;-99.054;2022-12-24T08:03:38;19.00;88.30
61386;DHT22;47256;18.904;-99.054;2022-12-24T08:06:07;19.00;88.00
61386;DHT22;47256;18.904;-99.054;2022-12-24T08:08:34;18.80;88.20
61386;DHT22;47256;18.904;-99.054;2022-12-24T08:11:05;18.60;89.00
61386;DHT22;47256;18.904;-99.054;2022-12-24T08:13:33;18.50;89.20
61386;DHT22;47256;18.904;-99.054;2022-12-24T08:16:00;18.50;89.90
61386;DHT22;47256;18.904;-99.054;2022-12-24T08:18:29;18.50;89.70
61386;DHT22;47256;18.904;-99.054;2022-12-24T08:20:56;18.60;89.50
61386;DHT22;47256;18.904;-99.054;2022-12-24T08:23:32;18.60;89.60
61386;DHT22;47256;18.904;-99.054;2022-12-24T08:25:59;18.50;89.00
61386;DHT22;47256;18.904;-99.054;2022-12-24T08:28:26;18.50;89.00
61386;DHT22;47256;18.904;-99.054;2022-12-24T08:30:54;18.60;89.30
61386;DHT22;47256;18.904;-99.054;2022-12-24T08:33:21;18.50;89.20
61386;DHT22;47256;18.904;-99.054;2022-12-24T08:35:51;18.60;88.80
61386;DHT22;47256;18.904;-99.054;2022-12-24T08:38:18;18.60;88.60
61386;DHT22;47256;18.904;-99.054;2022-12-24T08:40:47;18.50;88.90
61386;DHT22;47256;18.904;-99.054;2022-12-24T08:43:18;18.40;89.20
61386;DHT22;47256;18.904;-99.054;2022-12-24T08:46:15;18.30;89.30
61386;DHT22;47256;18.904;-99.054;2022-12-24T08:48:44;18.40;89.70
61386;DHT22;47256;18.904;-99.054;2022-12-24T08:51:11;18.40;89.20
61386;DHT22;47256;18.904;-99.054;2022-12-24T08:53:39;18.40;89.00
61386;DHT22;47256;18.904;-99.054;2022-12-24T08:56:09;18.40;89.00
61386;DHT22;47256;18.904;-99.054;2022-12-24T08:58:38;18.40;89.50
61386;DHT22;47256;18.904;-99.054;2022-12-24T09:01:15;18.40;89.20
61386;DHT22;47256;18.904;-99.054;2022-12-24T09:03:43;18.40;89.20
61386;DHT22;47256;18.904;-99.054;2022-12-24T09:06:12;18.40;89.40
61386;DHT22;47256;18.904;-99.054;2022-12-24T09:08:40;18.40;89.00
61386;DHT22;47256;18.904;-99.054;2022-12-24T09:11:14;18.30;89.00
61386;DHT22;47256;18.904;-99.054;2022-12-24T09:13:44;18.30;89.70
61386;DHT22;47256;18.904;-99.054;2022-12-24T09:16:11;18.30;89.50
61386;DHT22;47256;18.904;-99.054;2022-12-24T09:18:39;18.30;89.60
61386;DHT22;47256;18.904;-99.054;2022-12-24T09:21:12;18.20;90.00
61386;DHT22;47256;18.904;-99.054;2022-12-24T09:23:44;18.20;89.90
61386;DHT22;47256;18.904;-99.054;2022-12-24T09:26:14;18.00;90.20
61386;DHT22;47256;18.904;-99.054;2022-12-24T09:28:42;17.90;90.60
61386;DHT22;47256;18.904;-99.054;2022-12-24T09:31:10;17.90;90.60
61386;DHT22;47256;18.904;-99.054;2022-12-24T09:33:40;17.90;90.70
61386;DHT22;47256;18.904;-99.054;2022-12-24T09:36:08;17.90;90.50
61386;DHT22;47256;18.904;-99.054;2022-12-24T09:38:38;18.00;90.70
61386;DHT22;47256;18.904;-99.054;2022-12-24T09:46:52;17.90;91.00
61386;DHT22;47256;18.904;-99.054;2022-12-24T09:49:35;17.90;91.10
61386;DHT22;47256;18.904;-99.054;2022-12-24T09:52:09;17.90;91.00
61386;DHT22;47256;18.904;-99.054;2022-12-24T09:54:46;17.90;90.80
61386;DHT22;47256;18.904;-99.054;2022-12-24T09:57:34;17.90;91.10
61386;DHT22;47256;18.904;-99.054;2022-12-24T10:00:05;17.80;91.00
61386;DHT22;47256;18.904;-99.054;2022-12-24T10:02:36;17.90;91.20
61386;DHT22;47256;18.904;-99.054;2022-12-24T10:05:12;17.90;91.10
61386;DHT22;47256;18.904;-99.054;2022-12-24T10:07:48;17.90;91.00
61386;DHT22;47256;18.904;-99.054;2022-12-24T10:10:31;17.90;91.20
61386;DHT22;47256;18.904;-99.054;2022-12-24T10:15:49;17.90;91.20
61386;DHT22;47256;18.904;-99.054;2022-12-24T10:23:49;17.80;91.30
61386;DHT22;47256;18.904;-99.054;2022-12-24T10:26:22;17.70;91.40
61386;DHT22;47256;18.904;-99.054;2022-12-24T10:29:16;17.60;91.40
61386;DHT22;47256;18.904;-99.054;2022-12-24T10:34:44;17.50;91.30
61386;DHT22;47256;18.904;-99.054;2022-12-24T10:37:22;17.40;91.30
61386;DHT22;47256;18.904;-99.054;2022-12-24T10:39:50;17.40;91.40
61386;DHT22;47256;18.904;-99.054;2022-12-24T10:42:20;17.40;91.50
61386;DHT22;47256;18.904;-99.054;2022-12-24T10:44:56;17.40;91.10
61386;DHT22;47256;18.904;-99.054;2022-12-24T10:47:29;17.40;91.20
61386;DHT22;47256;18.904;-99.054;2022-12-24T10:52:50;17.40;91.30
61386;DHT22;47256;18.904;-99.054;2022-12-24T10:55:20;17.40;91.00
61386;DHT22;47256;18.904;-99.054;2022-12-24T10:58:04;17.30;91.20
61386;DHT22;47256;18.904;-99.054;2022-12-24T11:00:33;17.30;90.80
61386;DHT22;47256;18.904;-99.054;2022-12-24T11:05:38;17.20;91.00
61386;DHT22;47256;18.904;-99.054;2022-12-24T11:08:16;17.20;90.80
61386;DHT22;47256;18.904;-99.054;2022-12-24T11:10:56;17.10;91.10
61386;DHT22;47256;18.904;-99.054;2022-12-24T11:13:39;17.00;91.10
61386;DHT22;47256;18.904;-99.054;2022-12-24T11:16:29;17.00;91.60
61386;DHT22;47256;18.904;-99.054;2022-12-24T11:19:00;17.00;91.50
61386;DHT22;47256;18.904;-99.054;2022-12-24T11:23:59;16.90;91.10
61386;DHT22;47256;18.904;-99.054;2022-12-24T11:26:32;16.90;91.30
61386;DHT22;47256;18.904;-99.054;2022-12-24T11:29:21;16.90;91.00
61386;DHT22;47256;18.904;-99.054;2022-12-24T11:31:50;16.90;91.00
61386;DHT22;47256;18.904;-99.054;2022-12-24T11:36:50;16.80;91.20
61386;DHT22;47256;18.904;-99.054;2022-12-24T11:39:22;16.80;91.30
61386;DHT22;47256;18.904;-99.054;2022-12-24T11:41:50;16.90;91.30
61386;DHT22;47256;18.904;-99.054;2022-12-24T11:44:26;16.90;91.10
61386;DHT22;47256;18.904;-99.054;2022-12-24T11:47:01;17.00;91.20
61386;DHT22;47256;18.904;-99.054;2022-12-24T11:49:31;17.00;91.00
61386;DHT22;47256;18.904;-99.054;2022-12-24T11:55:05;17.00;91.10
61386;DHT22;47256;18.904;-99.054;2022-12-24T11:57:55;17.00;91.20
61386;DHT22;47256;18.904;-99.054;2022-12-24T12:00:25;16.80;91.30
61386;DHT22;47256;18.904;-99.054;2022-12-24T12:02:57;16.80;91.60
61386;DHT22;47256;18.904;-99.054;2022-12-24T12:05:32;16.80;91.40
61386;DHT22;47256;18.904;-99.054;2022-12-24T12:08:14;16.80;91.30
61386;DHT22;47256;18.904;-99.054;2022-12-24T12:10:45;16.80;91.30
61386;DHT22;47256;18.904;-99.054;2022-12-24T12:13:19;16.80;91.50
61386;DHT22;47256;18.904;-99.054;2022-12-24T12:16:13;16.80;91.40
61386;DHT22;47256;18.904;-99.054;2022-12-24T12:18:41;16.70;91.20
61386;DHT22;47256;18.904;-99.054;2022-12-24T12:21:24;16.60;91.10
61386;DHT22;47256;18.904;-99.054;2022-12-24T12:24:11;16.60;91.40
61386;DHT22;47256;18.904;-99.054;2022-12-24T12:26:42;16.60;91.50
61386;DHT22;47256;18.904;-99.054;2022-12-24T12:29:31;16.60;91.20
61386;DHT22;47256;18.904;-99.054;2022-12-24T12:32:07;16.60;91.40
61386;DHT22;47256;18.904;-99.054;2022-12-24T12:34:54;16.50;91.70
61386;DHT22;47256;18.904;-99.054;2022-12-24T12:37:35;16.50;91.80
61386;DHT22;47256;18.904;-99.054;2022-12-24T12:40:14;16.40;91.80
61386;DHT22;47256;18.904;-99.054;2022-12-24T12:46:15;16.30;91.70
61386;DHT22;47256;18.904;-99.054;2022-12-24T12:57:11;15.90;92.50
61386;DHT22;47256;18.904;-99.054;2022-12-24T12:59:46;16.00;92.70
61386;DHT22;47256;18.904;-99.054;2022-12-24T13:14:13;15.90;92.50
61386;DHT22;47256;18.904;-99.054;2022-12-24T13:16:56;16.00;92.50
61386;DHT22;47256;18.904;-99.054;2022-12-24T13:22:15;16.10;92.70
61386;DHT22;47256;18.904;-99.054;2022-12-24T13:24:51;16.10;92.60
61386;DHT22;47256;18.904;-99.054;2022-12-24T13:27:33;16.00;92.60
61386;DHT22;47256;18.904;-99.054;2022-12-24T13:30:39;16.10;92.70
61386;DHT22;47256;18.904;-99.054;2022-12-24T13:33:58;16.10;92.50
61386;DHT22;47256;18.904;-99.054;2022-12-24T13:36:10;16.10;92.90
61386;DHT22;47256;18.904;-99.054;2022-12-24T13:38:48;16.20;92.90
61386;DHT22;47256;18.904;-99.054;2022-12-24T13:49:45;16.20;92.00
61386;DHT22;47256;18.904;-99.054;2022-12-24T13:52:26;16.10;92.10
61386;DHT22;47256;18.904;-99.054;2022-12-24T13:55:03;15.90;92.20
61386;DHT22;47256;18.904;-99.054;2022-12-24T13:57:55;15.70;92.70
61386;DHT22;47256;18.904;-99.054;2022-12-24T14:00:31;15.80;93.00
61386;DHT22;47256;18.904;-99.054;2022-12-24T14:03:04;15.90;93.10
61386;DHT22;47256;18.904;-99.054;2022-12-24T14:05:36;16.10;92.80
61386;DHT22;47256;18.904;-99.054;2022-12-24T14:08:15;16.40;92.90
61386;DHT22;47256;18.904;-99.054;2022-12-24T14:10:55;16.50;92.80
61386;DHT22;47256;18.904;-99.054;2022-12-24T14:16:16;16.90;92.60
61386;DHT22;47256;18.904;-99.054;2022-12-24T14:18:59;17.10;92.30
61386;DHT22;47256;18.904;-99.054;2022-12-24T14:21:41;17.30;92.70
61386;DHT22;47256;18.904;-99.054;2022-12-24T14:24:16;17.50;92.80
61386;DHT22;47256;18.904;-99.054;2022-12-24T14:26:56;17.50;92.20
61386;DHT22;47256;18.904;-99.054;2022-12-24T14:29:31;17.70;91.70
61386;DHT22;47256;18.904;-99.054;2022-12-24T14:36:22;17.90;91.10
61386;DHT22;47256;18.904;-99.054;2022-12-24T14:38:58;18.20;91.20
61386;DHT22;47256;18.904;-99.054;2022-12-24T14:41:57;18.30;90.70
61386;DHT22;47256;18.904;-99.054;2022-12-24T15:02:42;19.30;90.40
61386;DHT22;47256;18.904;-99.054;2022-12-24T15:05:25;19.40;90.90
61386;DHT22;47256;18.904;-99.054;2022-12-24T15:08:01;19.40;90.60
61386;DHT22;47256;18.904;-99.054;2022-12-24T15:10:34;19.50;90.20
61386;DHT22;47256;18.904;-99.054;2022-12-24T15:15:43;19.90;90.20
61386;DHT22;47256;18.904;-99.054;2022-12-24T15:18:27;20.10;90.00
61386;DHT22;47256;18.904;-99.054;2022-12-24T15:20:59;20.20;90.20
61386;DHT22;47256;18.904;-99.054;2022-12-24T15:23:36;20.10;88.20
61386;DHT22;47256;18.904;-99.054;2022-12-24T15:28:40;19.90;87.10
61386;DHT22;47256;18.904;-99.054;2022-12-24T15:31:14;19.80;89.00
61386;DHT22;47256;18.904;-99.054;2022-12-24T15:33:48;19.90;89.10
61386;DHT22;47256;18.904;-99.054;2022-12-24T15:36:27;20.00;88.50
61386;DHT22;47256;18.904;-99.054;2022-12-24T15:39:05;20.10;87.90
61386;DHT22;47256;18.904;-99.054;2022-12-24T15:41:40;20.10;86.60
61386;DHT22;47256;18.904;-99.054;2022-12-24T15:44:34;20.30;85.80
61386;DHT22;47256;18.904;-99.054;2022-12-24T15:47:12;20.30;85.80
61386;DHT22;47256;18.904;-99.054;2022-12-24T15:49:47;20.30;85.30
61386;DHT22;47256;18.904;-99.054;2022-12-24T15:52:20;20.40;86.50
61386;DHT22;47256;18.904;-99.054;2022-12-24T15:54:52;20.40;86.40
61386;DHT22;47256;18.904;-99.054;2022-12-24T15:57:21;20.50;86.10
61386;DHT22;47256;18.904;-99.054;2022-12-24T15:59:59;20.40;85.60
61386;DHT22;47256;18.904;-99.054;2022-12-24T16:02:39;20.30;83.90
61386;DHT22;47256;18.904;-99.054;2022-12-24T16:13:29;20.50;84.40
61386;DHT22;47256;18.904;-99.054;2022-12-24T16:16:06;20.50;84.10
61386;DHT22;47256;18.904;-99.054;2022-12-24T16:18:54;20.60;83.70
61386;DHT22;47256;18.904;-99.054;2022-12-24T16:21:33;21.00;82.40
61386;DHT22;47256;18.904;-99.054;2022-12-24T16:24:14;21.30;82.10
61386;DHT22;47256;18.904;-99.054;2022-12-24T16:26:43;21.60;81.80
61386;DHT22;47256;18.904;-99.054;2022-12-24T16:29:11;21.70;81.30
61386;DHT22;47256;18.904;-99.054;2022-12-24T16:31:54;21.70;81.50
61386;DHT22;47256;18.904;-99.054;2022-12-24T16:34:27;21.60;80.00
61386;DHT22;47256;18.904;-99.054;2022-12-24T16:36:59;21.40;80.80
61386;DHT22;47256;18.904;-99.054;2022-12-24T16:39:31;21.30;80.50
61386;DHT22;47256;18.904;-99.054;2022-12-24T16:42:08;21.40;81.90
61386;DHT22;47256;18.904;-99.054;2022-12-24T16:44:56;21.60;81.50
61386;DHT22;47256;18.904;-99.054;2022-12-24T16:47:31;21.70;80.10
61386;DHT22;47256;18.904;-99.054;2022-12-24T16:50:00;21.80;79.60
61386;DHT22;47256;18.904;-99.054;2022-12-24T16:52:30;21.60;79.20
61386;DHT22;47256;18.904;-99.054;2022-12-24T16:55:00;21.40;79.20
61386;DHT22;47256;18.904;-99.054;2022-12-24T16:57:32;21.20;79.60
61386;DHT22;47256;18.904;-99.054;2022-12-24T17:00:02;21.20;79.50
61386;DHT22;47256;18.904;-99.054;2022-12-24T17:02:31;21.20;79.40
61386;DHT22;47256;18.904;-99.054;2022-12-24T17:05:00;21.10;81.00
61386;DHT22;47256;18.904;-99.054;2022-12-24T17:07:27;21.20;81.20
61386;DHT22;47256;18.904;-99.054;2022-12-24T17:09:54;21.30;80.20
61386;DHT22;47256;18.904;-99.054;2022-12-24T17:12:22;21.60;79.80
61386;DHT22;47256;18.904;-99.054;2022-12-24T17:14:49;21.90;78.80
61386;DHT22;47256;18.904;-99.054;2022-12-24T17:17:25;22.20;77.40
61386;DHT22;47256;18.904;-99.054;2022-12-24T17:19:57;22.10;76.90
61386;DHT22;47256;18.904;-99.054;2022-12-24T17:22:25;22.00;77.20
61386;DHT22;47256;18.904;-99.054;2022-12-24T17:24:54;22.00;76.80
61386;DHT22;47256;18.904;-99.054;2022-12-24T17:27:26;22.10;78.40
61386;DHT22;47256;18.904;-99.054;2022-12-24T17:29:55;22.10;77.70
61386;DHT22;47256;18.904;-99.054;2022-12-24T17:32:24;22.50;79.40
61386;DHT22;47256;18.904;-99.054;2022-12-24T17:34:53;22.60;77.90
61386;DHT22;47256;18.904;-99.054;2022-12-24T17:37:22;22.70;77.10
61386;DHT22;47256;18.904;-99.054;2022-12-24T17:39:51;22.90;76.70